sensor_id;sensor_type;location;lat;lon;timestamp;pressure;altitude;pressure_sealevel;temperature;humidity
21273;BME280;36726;52.328;10.552;2023-05-07T00:00:21;101043.75;;;11.23;91.94
21273;BME280;36726;52.328;10.552;2023-05-07T00:02:47;101043.72;;;11.21;92.34
21273;BME280;36726;52.328;10.552;2023-05-07T00:05:16;101043.69;;;11.18;91.93
21273;BME280;36726;52.328;10.552;2023-05-07T00:07:42;101039.28;;;11.17;92.63
21273;BME280;36726;52.328;10.552;2023-05-07T00:10:10;101035.72;;;11.15;92.47
21273;BME280;36726;52.328;10.552;2023-05-07T00:12:37;101039.28;;;11.17;92.31
21273;BME280;36726;52.328;10.552;2023-05-07T00:15:04;101041.03;;;11.18;93.02
21273;BME280;36726;52.328;10.552;2023-05-07T00:17:32;101043.66;;;11.15;92.92
21273;BME280;36726;52.328;10.552;2023-05-07T00:19:59;101043.66;;;11.15;93.04
21273;BME280;36726;52.328;10.552;2023-05-07T00:22:26;101039.19;;;11.14;92.61
21273;BME280;36726;52.328;10.552;2023-05-07T00:24:52;101042.72;;;11.13;93.24
21273;BME280;36726;52.328;10.552;2023-05-07T00:27:19;101042.66;;;11.10;93.57
21273;BME280;36726;52.328;10.552;2023-05-07T00:29:45;101047.91;;;11.07;93.61
21273;BME280;36726;52.328;10.552;2023-05-07T00:32:12;101047.91;;;11.07;93.18
21273;BME280;36726;52.328;10.552;2023-05-07T00:34:39;101049.63;;;11.05;93.21
21273;BME280;36726;52.328;10.552;2023-05-07T00:37:05;101047.84;;;11.04;93.09
21273;BME280;36726;52.328;10.552;2023-05-07T00:39:33;101058.44;;;11.04;93.52
21273;BME280;36726;52.328;10.552;2023-05-07T00:42:00;101056.63;;;11.03;93.01
21273;BME280;36726;52.328;10.552;2023-05-07T00:44:27;101051.34;;;11.03;92.60
21273;BME280;36726;52.328;10.552;2023-05-07T00:46:55;101053.03;;;11.00;92.88
21273;BME280;36726;52.328;10.552;2023-05-07T00:49:22;101041.59;;;10.99;92.75
21273;BME280;36726;52.328;10.552;2023-05-07T00:51:50;101044.25;;;11.01;92.65
21273;BME280;36726;52.328;10.552;2023-05-07T00:54:17;101037.19;;;11.01;92.96
21273;BME280;36726;52.328;10.552;2023-05-07T00:56:43;101031.88;;;11.01;92.46
21273;BME280;36726;52.328;10.552;2023-05-07T00:59:11;101040.72;;;11.00;92.31
21273;BME280;36726;52.328;10.552;2023-05-07T01:01:38;101034.50;;;11.00;92.23
21273;BME280;36726;52.328;10.552;2023-05-07T01:04:04;101036.25;;;10.98;92.35
21273;BME280;36726;52.328;10.552;2023-05-07T01:06:31;101040.59;;;10.96;92.18
21273;BME280;36726;52.328;10.552;2023-05-07T01:08:59;101036.16;;;10.93;91.91
21273;BME280;36726;52.328;10.552;2023-05-07T01:11:27;101037.00;;;10.91;91.68
21273;BME280;36726;52.328;10.552;2023-05-07T01:13:54;101038.78;;;10.90;91.67
21273;BME280;36726;52.328;10.552;2023-05-07T01:16:21;101049.28;;;10.87;92.47
21273;BME280;36726;52.328;10.552;2023-05-07T01:18:48;101047.50;;;10.86;92.43
21273;BME280;36726;52.328;10.552;2023-05-07T01:21:16;101036.03;;;10.87;92.23
21273;BME280;36726;52.328;10.552;2023-05-07T01:23:44;101046.72;;;10.90;92.15
21273;BME280;36726;52.328;10.552;2023-05-07T01:26:11;101043.22;;;10.93;92.16
21273;BME280;36726;52.328;10.552;2023-05-07T01:28:38;101037.94;;;10.94;92.29
21273;BME280;36726;52.328;10.552;2023-05-07T01:31:04;101043.22;;;10.94;92.58
21273;BME280;36726;52.328;10.552;2023-05-07T01:33:34;101044.13;;;10.95;92.30
21273;BME280;36726;52.328;10.552;2023-05-07T01:36:03;101038.81;;;10.93;92.05
21273;BME280;36726;52.328;10.552;2023-05-07T01:38:35;101041.47;;;10.93;92.66
21273;BME280;36726;52.328;10.552;2023-05-07T01:41:02;101042.31;;;10.92;92.35
21273;BME280;36726;52.328;10.552;2023-05-07T01:43:30;101049.41;;;10.93;92.30
21273;BME280;36726;52.328;10.552;2023-05-07T01:45:57;101050.31;;;10.94;93.11
21273;BME280;36726;52.328;10.552;2023-05-07T01:48:25;101046.75;;;10.93;92.49
21273;BME280;36726;52.328;10.552;2023-05-07T01:50:53;101044.94;;;10.91;92.18
21273;BME280;36726;52.328;10.552;2023-05-07T01:53:20;101046.59;;;10.86;92.35
21273;BME280;36726;52.328;10.552;2023-05-07T01:55:46;101056.25;;;10.82;91.96
21273;BME280;36726;52.328;10.552;2023-05-07T01:58:14;101057.06;;;10.80;91.67
21273;BME280;36726;52.328;10.552;2023-05-07T02:00:40;101063.22;;;10.77;91.87
21273;BME280;36726;52.328;10.552;2023-05-07T02:03:07;101061.34;;;10.73;91.70
21273;BME280;36726;52.328;10.552;2023-05-07T02:05:44;101056.03;;;10.72;91.98
21273;BME280;36726;52.328;10.552;2023-05-07T02:08:37;101052.47;;;10.70;92.09
21273;BME280;36726;52.328;10.552;2023-05-07T02:11:04;101056.00;;;10.70;92.02
21273;BME280;36726;52.328;10.552;2023-05-07T02:13:33;101059.53;;;10.71;92.58
21273;BME280;36726;52.328;10.552;2023-05-07T02:16:01;101059.53;;;10.71;92.29
21273;BME280;36726;52.328;10.552;2023-05-07T02:18:29;101056.03;;;10.72;92.77
21273;BME280;36726;52.328;10.552;2023-05-07T02:20:56;101056.06;;;10.73;92.89
21273;BME280;36726;52.328;10.552;2023-05-07T02:23:22;101054.34;;;10.75;92.89
21273;BME280;36726;52.328;10.552;2023-05-07T02:25:49;101051.69;;;10.75;93.05
21273;BME280;36726;52.328;10.552;2023-05-07T02:28:16;101052.53;;;10.74;93.22
21273;BME280;36726;52.328;10.552;2023-05-07T02:30:49;101060.44;;;10.73;93.09
21273;BME280;36726;52.328;10.552;2023-05-07T02:33:17;101058.72;;;10.73;92.42
21273;BME280;36726;52.328;10.552;2023-05-07T02:35:43;101054.31;;;10.74;93.38
21273;BME280;36726;52.328;10.552;2023-05-07T02:38:12;101057.81;;;10.74;93.17
21273;BME280;36726;52.328;10.552;2023-05-07T02:40:40;101053.38;;;10.72;92.60
21273;BME280;36726;52.328;10.552;2023-05-07T02:43:06;101064.78;;;10.69;92.53
21273;BME280;36726;52.328;10.552;2023-05-07T02:45:33;101060.38;;;10.68;92.63
21273;BME280;36726;52.328;10.552;2023-05-07T02:48:01;101068.22;;;10.65;92.83
21273;BME280;36726;52.328;10.552;2023-05-07T02:50:28;101068.19;;;10.62;92.40
21273;BME280;36726;52.328;10.552;2023-05-07T02:52:55;101077.84;;;10.60;92.69
21273;BME280;36726;52.328;10.552;2023-05-07T02:55:21;101078.72;;;10.59;93.71
21273;BME280;36726;52.328;10.552;2023-05-07T02:57:48;101083.06;;;10.57;93.66
21273;BME280;36726;52.328;10.552;2023-05-07T03:00:19;101086.56;;;10.56;93.86
21273;BME280;36726;52.328;10.552;2023-05-07T03:02:57;101075.13;;;10.57;93.78
21273;BME280;36726;52.328;10.552;2023-05-07T03:05:23;101083.91;;;10.56;93.43
21273;BME280;36726;52.328;10.552;2023-05-07T03:07:50;101068.91;;;10.55;92.92
21273;BME280;36726;52.328;10.552;2023-05-07T03:10:16;101073.22;;;10.50;93.24
21273;BME280;36726;52.328;10.552;2023-05-07T03:12:43;101066.97;;;10.47;93.23
21273;BME280;36726;52.328;10.552;2023-05-07T03:15:14;101073.09;;;10.44;93.94
21273;BME280;36726;52.328;10.552;2023-05-07T03:17:40;101072.16;;;10.42;93.38
21273;BME280;36726;52.328;10.552;2023-05-07T03:20:08;101069.50;;;10.42;93.22
21273;BME280;36726;52.328;10.552;2023-05-07T03:22:36;101063.34;;;10.41;93.73
21273;BME280;36726;52.328;10.552;2023-05-07T03:25:03;101060.66;;;10.40;93.98
21273;BME280;36726;52.328;10.552;2023-05-07T03:27:30;101058.88;;;10.39;93.48
21273;BME280;36726;52.328;10.552;2023-05-07T03:29:57;101051.78;;;10.38;93.91
21273;BME280;36726;52.328;10.552;2023-05-07T03:32:24;101049.13;;;10.38;92.80
21273;BME280;36726;52.328;10.552;2023-05-07T03:34:51;101053.59;;;10.39;93.55
21273;BME280;36726;52.328;10.552;2023-05-07T03:37:18;101056.25;;;10.39;93.84
21273;BME280;36726;52.328;10.552;2023-05-07T03:39:44;101054.50;;;10.39;93.10
21273;BME280;36726;52.328;10.552;2023-05-07T03:42:11;101061.56;;;10.40;93.61
21273;BME280;36726;52.328;10.552;2023-05-07T03:44:38;101058.94;;;10.42;93.45
21273;BME280;36726;52.328;10.552;2023-05-07T03:47:05;101064.22;;;10.42;92.66
21273;BME280;36726;52.328;10.552;2023-05-07T03:49:31;101063.28;;;10.40;92.72
21273;BME280;36726;52.328;10.552;2023-05-07T03:51:59;101068.56;;;10.38;92.78
21273;BME280;36726;52.328;10.552;2023-05-07T03:54:25;101070.28;;;10.38;91.67
21273;BME280;36726;52.328;10.552;2023-05-07T03:56:52;101069.44;;;10.37;92.37
21273;BME280;36726;52.328;10.552;2023-05-07T03:59:19;101065.94;;;10.40;92.01
21273;BME280;36726;52.328;10.552;2023-05-07T04:01:47;101071.31;;;10.43;92.00
21273;BME280;36726;52.328;10.552;2023-05-07T04:04:17;101070.44;;;10.44;92.38
21273;BME280;36726;52.328;10.552;2023-05-07T04:06:44;101066.97;;;10.47;91.35
21273;BME280;36726;52.328;10.552;2023-05-07T04:09:10;101069.59;;;10.45;91.66
21273;BME280;36726;52.328;10.552;2023-05-07T04:11:37;101072.19;;;10.43;91.03
21273;BME280;36726;52.328;10.552;2023-05-07T04:14:08;101068.66;;;10.43;90.69
21273;BME280;36726;52.328;10.552;2023-05-07T04:16:35;101083.69;;;10.45;91.12
21273;BME280;36726;52.328;10.552;2023-05-07T04:19:03;101074.00;;;10.46;90.55
21273;BME280;36726;52.328;10.552;2023-05-07T04:21:30;101080.19;;;10.45;90.30
21273;BME280;36726;52.328;10.552;2023-05-07T04:23:58;101079.31;;;10.46;90.27
21273;BME280;36726;52.328;10.552;2023-05-07T04:26:24;101082.84;;;10.47;89.95
21273;BME280;36726;52.328;10.552;2023-05-07T04:28:51;101084.56;;;10.44;90.19
21273;BME280;36726;52.328;10.552;2023-05-07T04:31:17;101079.28;;;10.44;89.93
21273;BME280;36726;52.328;10.552;2023-05-07T04:33:48;101086.31;;;10.44;89.33
21273;BME280;36726;52.328;10.552;2023-05-07T04:36:15;101095.16;;;10.44;89.87
21273;BME280;36726;52.328;10.552;2023-05-07T04:38:48;101089.84;;;10.43;89.51
21273;BME280;36726;52.328;10.552;2023-05-07T04:41:16;101083.66;;;10.44;90.04
21273;BME280;36726;52.328;10.552;2023-05-07T04:43:43;101092.53;;;10.46;89.58
21273;BME280;36726;52.328;10.552;2023-05-07T04:46:11;101098.81;;;10.51;89.49
21273;BME280;36726;52.328;10.552;2023-05-07T04:48:38;101101.53;;;10.54;89.79
21273;BME280;36726;52.328;10.552;2023-05-07T04:51:06;101105.03;;;10.55;89.09
21273;BME280;36726;52.328;10.552;2023-05-07T04:53:32;101101.53;;;10.54;88.77
21273;BME280;36726;52.328;10.552;2023-05-07T04:55:59;101109.50;;;10.56;88.91
21273;BME280;36726;52.328;10.552;2023-05-07T04:58:31;101118.34;;;10.58;88.63
21273;BME280;36726;52.328;10.552;2023-05-07T05:00:58;101120.19;;;10.62;89.16
21273;BME280;36726;52.328;10.552;2023-05-07T05:03:25;101122.03;;;10.64;87.90
21273;BME280;36726;52.328;10.552;2023-05-07T05:05:52;101117.72;;;10.69;88.33
21273;BME280;36726;52.328;10.552;2023-05-07T05:08:21;101117.84;;;10.75;87.51
21273;BME280;36726;52.328;10.552;2023-05-07T05:10:47;101123.28;;;10.81;87.62
21273;BME280;36726;52.328;10.552;2023-05-07T05:13:16;101135.69;;;10.85;87.15
21273;BME280;36726;52.328;10.552;2023-05-07T05:15:43;101142.00;;;10.92;86.23
21273;BME280;36726;52.328;10.552;2023-05-07T05:18:10;101135.88;;;10.94;86.25
21273;BME280;36726;52.328;10.552;2023-05-07T05:20:38;101132.38;;;10.95;85.57
21273;BME280;36726;52.328;10.552;2023-05-07T05:23:05;101124.47;;;10.97;85.86
21273;BME280;36726;52.328;10.552;2023-05-07T05:25:32;101137.78;;;11.01;85.77
21273;BME280;36726;52.328;10.552;2023-05-07T05:28:00;101136.97;;;11.04;85.99
21273;BME280;36726;52.328;10.552;2023-05-07T05:30:28;101135.25;;;11.06;85.73
21273;BME280;36726;52.328;10.552;2023-05-07T05:32:54;101139.72;;;11.08;84.96
21273;BME280;36726;52.328;10.552;2023-05-07T05:35:21;101125.63;;;11.11;84.50
21273;BME280;36726;52.328;10.552;2023-05-07T05:37:48;101131.84;;;11.13;84.37
21273;BME280;36726;52.328;10.552;2023-05-07T05:40:16;101129.31;;;11.17;84.62
21273;BME280;36726;52.328;10.552;2023-05-07T05:42:42;101127.53;;;11.18;84.40
21273;BME280;36726;52.328;10.552;2023-05-07T05:45:09;101134.66;;;11.20;83.73
21273;BME280;36726;52.328;10.552;2023-05-07T05:47:37;101132.03;;;11.22;84.04
21273;BME280;36726;52.328;10.552;2023-05-07T05:50:06;101129.41;;;11.23;83.53
21273;BME280;36726;52.328;10.552;2023-05-07T05:52:33;101140.00;;;11.23;83.71
21273;BME280;36726;52.328;10.552;2023-05-07T05:55:00;101146.16;;;11.22;83.66
21273;BME280;36726;52.328;10.552;2023-05-07T05:57:27;101143.56;;;11.25;84.34
21273;BME280;36726;52.328;10.552;2023-05-07T05:59:54;101148.03;;;11.28;83.89
21273;BME280;36726;52.328;10.552;2023-05-07T06:02:22;101149.84;;;11.30;83.44
21273;BME280;36726;52.328;10.552;2023-05-07T06:04:50;101146.25;;;11.28;83.46
21273;BME280;36726;52.328;10.552;2023-05-07T06:07:19;101147.13;;;11.27;83.54
21273;BME280;36726;52.328;10.552;2023-05-07T06:09:45;101147.19;;;11.30;83.12
21273;BME280;36726;52.328;10.552;2023-05-07T06:12:12;101141.06;;;11.33;83.00
21273;BME280;36726;52.328;10.552;2023-05-07T06:14:39;101150.88;;;11.38;83.06
21273;BME280;36726;52.328;10.552;2023-05-07T06:17:07;101150.09;;;11.44;82.94
21273;BME280;36726;52.328;10.552;2023-05-07T06:19:33;101152.81;;;11.48;83.20
21273;BME280;36726;52.328;10.552;2023-05-07T06:22:00;101164.31;;;11.49;82.34
21273;BME280;36726;52.328;10.552;2023-05-07T06:24:29;101156.41;;;11.50;82.61
21273;BME280;36726;52.328;10.552;2023-05-07T06:26:56;101152.81;;;11.48;81.55
21273;BME280;36726;52.328;10.552;2023-05-07T06:29:25;101165.22;;;11.49;82.44
21273;BME280;36726;52.328;10.552;2023-05-07T06:31:53;101174.94;;;11.50;82.51
21273;BME280;36726;52.328;10.552;2023-05-07T06:34:21;101169.66;;;11.52;82.50
21273;BME280;36726;52.328;10.552;2023-05-07T06:36:47;101168.81;;;11.53;82.59
21273;BME280;36726;52.328;10.552;2023-05-07T06:39:24;101155.66;;;11.59;82.28
21273;BME280;36726;52.328;10.552;2023-05-07T06:41:51;101148.78;;;11.66;81.46
21273;BME280;36726;52.328;10.552;2023-05-07T06:44:24;101153.25;;;11.70;81.08
21273;BME280;36726;52.328;10.552;2023-05-07T06:47:03;101150.63;;;11.71;80.85
21273;BME280;36726;52.328;10.552;2023-05-07T06:49:31;101166.59;;;11.76;80.79
21273;BME280;36726;52.328;10.552;2023-05-07T06:51:58;101155.16;;;11.78;80.92
21273;BME280;36726;52.328;10.552;2023-05-07T06:54:25;101160.59;;;11.86;80.82
21273;BME280;36726;52.328;10.552;2023-05-07T06:56:52;101165.16;;;11.93;81.30
21273;BME280;36726;52.328;10.552;2023-05-07T06:59:19;101159.06;;;12.00;80.53
21273;BME280;36726;52.328;10.552;2023-05-07T07:01:46;101164.50;;;12.07;80.43
21273;BME280;36726;52.328;10.552;2023-05-07T07:04:13;101161.13;;;12.19;80.14
21273;BME280;36726;52.328;10.552;2023-05-07T07:06:41;101168.28;;;12.23;79.25
21273;BME280;36726;52.328;10.552;2023-05-07T07:09:11;101168.22;;;12.18;78.75
21273;BME280;36726;52.328;10.552;2023-05-07T07:11:39;101164.69;;;12.18;79.33
21273;BME280;36726;52.328;10.552;2023-05-07T07:14:06;101166.50;;;12.22;79.66
21273;BME280;36726;52.328;10.552;2023-05-07T07:16:38;101167.38;;;12.22;79.22
21273;BME280;36726;52.328;10.552;2023-05-07T07:19:05;101178.94;;;12.26;78.54
21273;BME280;36726;52.328;10.552;2023-05-07T07:21:32;101174.50;;;12.25;78.99
21273;BME280;36726;52.328;10.552;2023-05-07T07:23:58;101165.66;;;12.24;79.14
21273;BME280;36726;52.328;10.552;2023-05-07T07:26:25;101175.44;;;12.27;79.56
21273;BME280;36726;52.328;10.552;2023-05-07T07:28:51;101176.31;;;12.27;78.65
21273;BME280;36726;52.328;10.552;2023-05-07T07:31:20;101191.38;;;12.28;78.53
21273;BME280;36726;52.328;10.552;2023-05-07T07:33:49;101186.06;;;12.30;78.63
21273;BME280;36726;52.328;10.552;2023-05-07T07:36:18;101195.78;;;12.29;78.40
21273;BME280;36726;52.328;10.552;2023-05-07T07:38:47;101183.41;;;12.28;78.91
21273;BME280;36726;52.328;10.552;2023-05-07T07:41:16;101186.03;;;12.27;79.02
21273;BME280;36726;52.328;10.552;2023-05-07T07:43:43;101185.16;;;12.28;79.03
21273;BME280;36726;52.328;10.552;2023-05-07T07:46:09;101183.38;;;12.27;79.01
21273;BME280;36726;52.328;10.552;2023-05-07T07:48:36;101183.34;;;12.24;79.11
21273;BME280;36726;52.328;10.552;2023-05-07T07:51:03;101191.34;;;12.27;78.93
21273;BME280;36726;52.328;10.552;2023-05-07T07:53:30;101194.91;;;12.29;79.35
21273;BME280;36726;52.328;10.552;2023-05-07T07:55:57;101190.47;;;12.29;78.63
21273;BME280;36726;52.328;10.552;2023-05-07T07:58:27;101200.25;;;12.32;78.17
21273;BME280;36726;52.328;10.552;2023-05-07T08:00:54;101198.56;;;12.37;78.20
21273;BME280;36726;52.328;10.552;2023-05-07T08:03:23;101207.47;;;12.42;77.75
21273;BME280;36726;52.328;10.552;2023-05-07T08:05:53;101205.84;;;12.48;78.20
21273;BME280;36726;52.328;10.552;2023-05-07T08:08:21;101207.69;;;12.54;77.90
21273;BME280;36726;52.328;10.552;2023-05-07T08:10:48;101201.56;;;12.60;76.31
21273;BME280;36726;52.328;10.552;2023-05-07T08:13:24;101200.00;;;12.72;76.61
21273;BME280;36726;52.328;10.552;2023-05-07T08:15:51;101205.53;;;12.89;76.93
21273;BME280;36726;52.328;10.552;2023-05-07T08:18:18;101194.28;;;13.05;76.27
21273;BME280;36726;52.328;10.552;2023-05-07T08:20:46;101200.56;;;13.13;75.46
21273;BME280;36726;52.328;10.552;2023-05-07T08:23:17;101193.59;;;13.21;75.48
21273;BME280;36726;52.328;10.552;2023-05-07T08:25:45;101191.06;;;13.31;75.08
21273;BME280;36726;52.328;10.552;2023-05-07T08:28:12;101189.31;;;13.35;72.99
21273;BME280;36726;52.328;10.552;2023-05-07T08:30:40;101185.75;;;13.34;73.77
21273;BME280;36726;52.328;10.552;2023-05-07T08:33:08;101188.44;;;13.36;73.43
21273;BME280;36726;52.328;10.552;2023-05-07T08:35:35;101194.66;;;13.39;73.76
21273;BME280;36726;52.328;10.552;2023-05-07T08:38:03;101195.63;;;13.44;73.44
21273;BME280;36726;52.328;10.552;2023-05-07T08:40:34;101201.88;;;13.49;72.66
21273;BME280;36726;52.328;10.552;2023-05-07T08:43:02;101208.16;;;13.57;71.41
21273;BME280;36726;52.328;10.552;2023-05-07T08:45:32;101203.84;;;13.66;71.52
21273;BME280;36726;52.328;10.552;2023-05-07T08:48:01;101215.41;;;13.72;71.77
21273;BME280;36726;52.328;10.552;2023-05-07T08:50:35;101220.88;;;13.86;70.92
21273;BME280;36726;52.328;10.552;2023-05-07T08:53:03;101218.38;;;14.01;71.05
21273;BME280;36726;52.328;10.552;2023-05-07T08:55:31;101220.25;;;14.14;69.62
21273;BME280;36726;52.328;10.552;2023-05-07T08:57:58;101225.66;;;14.23;68.63
21273;BME280;36726;52.328;10.552;2023-05-07T09:00:28;101223.03;;;14.26;68.28
21273;BME280;36726;52.328;10.552;2023-05-07T09:02:55;101218.66;;;14.28;68.54
21273;BME280;36726;52.328;10.552;2023-05-07T09:05:22;101217.81;;;14.36;68.14
21273;BME280;36726;52.328;10.552;2023-05-07T09:07:49;101215.25;;;14.47;68.40
21273;BME280;36726;52.328;10.552;2023-05-07T09:10:21;101210.81;;;14.50;67.27
21273;BME280;36726;52.328;10.552;2023-05-07T09:12:48;101210.84;;;14.55;67.18
21273;BME280;36726;52.328;10.552;2023-05-07T09:15:17;101223.31;;;14.61;67.42
21273;BME280;36726;52.328;10.552;2023-05-07T09:17:44;101224.28;;;14.73;66.29
21273;BME280;36726;52.328;10.552;2023-05-07T09:20:11;101226.19;;;14.89;66.45
21273;BME280;36726;52.328;10.552;2023-05-07T09:22:39;101218.25;;;15.00;65.67
21273;BME280;36726;52.328;10.552;2023-05-07T09:25:10;101218.25;;;15.04;65.21
21273;BME280;36726;52.328;10.552;2023-05-07T09:27:38;101219.19;;;15.15;65.33
21273;BME280;36726;52.328;10.552;2023-05-07T09:30:06;101224.56;;;15.23;65.76
21273;BME280;36726;52.328;10.552;2023-05-07T09:32:35;101221.94;;;15.30;65.23
21273;BME280;36726;52.328;10.552;2023-05-07T09:35:05;101217.50;;;15.35;64.51
21273;BME280;36726;52.328;10.552;2023-05-07T09:37:33;101222.84;;;15.38;64.00
21273;BME280;36726;52.328;10.552;2023-05-07T09:40:00;101216.72;;;15.51;64.27
21273;BME280;36726;52.328;10.552;2023-05-07T09:42:29;101214.97;;;15.63;63.81
21273;BME280;36726;52.328;10.552;2023-05-07T09:44:59;101226.56;;;15.75;63.60
21273;BME280;36726;52.328;10.552;2023-05-07T09:47:32;101225.69;;;15.90;63.21
21273;BME280;36726;52.328;10.552;2023-05-07T09:50:05;101222.13;;;15.89;61.80
21273;BME280;36726;52.328;10.552;2023-05-07T09:52:33;101217.69;;;15.87;61.91
21273;BME280;36726;52.328;10.552;2023-05-07T09:55:03;101215.03;;;15.97;61.18
21273;BME280;36726;52.328;10.552;2023-05-07T09:57:32;101229.25;;;16.05;60.64
21273;BME280;36726;52.328;10.552;2023-05-07T10:00:04;101231.94;;;16.11;60.83
21273;BME280;36726;52.328;10.552;2023-05-07T10:02:50;101224.84;;;16.24;60.99
21273;BME280;36726;52.328;10.552;2023-05-07T10:05:26;101223.94;;;16.29;59.01
21273;BME280;36726;52.328;10.552;2023-05-07T10:07:56;101222.16;;;16.36;60.14
21273;BME280;36726;52.328;10.552;2023-05-07T10:10:24;101223.97;;;16.47;59.38
21273;BME280;36726;52.328;10.552;2023-05-07T10:12:52;101215.97;;;16.55;59.74
21273;BME280;36726;52.328;10.552;2023-05-07T10:15:28;101222.19;;;16.66;59.76
21273;BME280;36726;52.328;10.552;2023-05-07T10:17:57;101218.63;;;16.64;59.35
21273;BME280;36726;52.328;10.552;2023-05-07T10:20:26;101224.84;;;16.54;59.31
21273;BME280;36726;52.328;10.552;2023-05-07T10:22:55;101226.63;;;16.50;59.36
21273;BME280;36726;52.328;10.552;2023-05-07T10:25:31;101223.06;;;16.54;59.53
21273;BME280;36726;52.328;10.552;2023-05-07T10:28:08;101235.50;;;16.43;59.02
21273;BME280;36726;52.328;10.552;2023-05-07T10:33:56;101223.03;;;16.38;58.96
21273;BME280;36726;52.328;10.552;2023-05-07T10:36:25;101233.72;;;16.29;59.44
21273;BME280;36726;52.328;10.552;2023-05-07T10:38:53;101237.31;;;16.38;60.33
21273;BME280;36726;52.328;10.552;2023-05-07T10:41:20;101243.50;;;16.45;59.69
21273;BME280;36726;52.328;10.552;2023-05-07T10:43:48;101240.00;;;16.49;59.24
21273;BME280;36726;52.328;10.552;2023-05-07T10:46:28;101242.66;;;16.56;58.81
21273;BME280;36726;52.328;10.552;2023-05-07T10:49:13;101241.75;;;16.68;57.87
21273;BME280;36726;52.328;10.552;2023-05-07T10:52:13;101235.50;;;16.80;58.29
21273;BME280;36726;52.328;10.552;2023-05-07T11:04:24;101227.47;;;16.90;57.92
21273;BME280;36726;52.328;10.552;2023-05-07T11:07:27;101236.38;;;16.92;57.79
21273;BME280;36726;52.328;10.552;2023-05-07T11:10:00;101246.13;;;17.07;58.12
21273;BME280;36726;52.328;10.552;2023-05-07T11:12:54;101246.09;;;17.20;56.76
21273;BME280;36726;52.328;10.552;2023-05-07T11:15:38;101245.19;;;17.21;56.50
21273;BME280;36726;52.328;10.552;2023-05-07T11:18:16;101237.13;;;17.26;56.73
21273;BME280;36726;52.328;10.552;2023-05-07T11:20:52;101238.91;;;17.34;57.17
21273;BME280;36726;52.328;10.552;2023-05-07T11:26:25;101235.34;;;17.28;56.44
21273;BME280;36726;52.328;10.552;2023-05-07T11:28:52;101232.72;;;17.22;56.93
21273;BME280;36726;52.328;10.552;2023-05-07T11:31:26;101232.75;;;17.08;56.77
21273;BME280;36726;52.328;10.552;2023-05-07T11:33:57;101248.78;;;17.10;57.42
21273;BME280;36726;52.328;10.552;2023-05-07T11:36:24;101239.00;;;17.01;56.51
21273;BME280;36726;52.328;10.552;2023-05-07T11:38:54;101239.91;;;16.97;56.69
21273;BME280;36726;52.328;10.552;2023-05-07T11:41:20;101244.38;;;16.86;57.74
21273;BME280;36726;52.328;10.552;2023-05-07T11:43:55;101244.41;;;16.77;58.49
21273;BME280;36726;52.328;10.552;2023-05-07T11:46:23;101243.53;;;16.74;59.11
21273;BME280;36726;52.328;10.552;2023-05-07T11:48:50;101241.75;;;16.68;58.67
21273;BME280;36726;52.328;10.552;2023-05-07T11:51:21;101240.91;;;16.57;58.52
21273;BME280;36726;52.328;10.552;2023-05-07T11:53:50;101240.88;;;16.60;58.71
21273;BME280;36726;52.328;10.552;2023-05-07T11:56:17;101244.41;;;16.59;58.99
21273;BME280;36726;52.328;10.552;2023-05-07T11:58:46;101249.78;;;16.53;59.14
21273;BME280;36726;52.328;10.552;2023-05-07T12:01:14;101240.88;;;16.51;59.02
21273;BME280;36726;52.328;10.552;2023-05-07T12:03:43;101248.91;;;16.58;58.97
21273;BME280;36726;52.328;10.552;2023-05-07T12:06:14;101249.78;;;16.53;59.00
21273;BME280;36726;52.328;10.552;2023-05-07T12:08:42;101256.00;;;16.52;60.04
21273;BME280;36726;52.328;10.552;2023-05-07T12:11:21;101246.22;;;16.51;59.41
21273;BME280;36726;52.328;10.552;2023-05-07T12:13:49;101252.47;;;16.51;60.21
21273;BME280;36726;52.328;10.552;2023-05-07T12:16:18;101243.53;;;16.42;59.19
21273;BME280;36726;52.328;10.552;2023-05-07T12:18:46;101254.22;;;16.55;59.19
21273;BME280;36726;52.328;10.552;2023-05-07T12:21:13;101256.00;;;16.78;59.10
21273;BME280;36726;52.328;10.552;2023-05-07T12:23:39;101250.66;;;16.90;58.92
21273;BME280;36726;52.328;10.552;2023-05-07T12:26:06;101248.81;;;16.92;58.97
21273;BME280;36726;52.328;10.552;2023-05-07T12:28:37;101255.06;;;16.98;58.43
21273;BME280;36726;52.328;10.552;2023-05-07T12:31:05;101251.50;;;17.05;58.25
21273;BME280;36726;52.328;10.552;2023-05-07T12:33:33;101252.34;;;17.12;58.35
21273;BME280;36726;52.328;10.552;2023-05-07T12:36:06;101259.47;;;17.10;57.55
21273;BME280;36726;52.328;10.552;2023-05-07T12:38:38;101257.69;;;17.19;57.61
21273;BME280;36726;52.328;10.552;2023-05-07T12:41:06;101260.25;;;17.46;57.32
21273;BME280;36726;52.328;10.552;2023-05-07T12:43:33;101266.44;;;17.65;57.40
21273;BME280;36726;52.328;10.552;2023-05-07T12:46:04;101254.81;;;17.71;56.36
21273;BME280;36726;52.328;10.552;2023-05-07T12:48:32;101261.97;;;17.69;55.35
21273;BME280;36726;52.328;10.552;2023-05-07T12:51:00;101262.00;;;17.63;56.05
21273;BME280;36726;52.328;10.552;2023-05-07T12:53:30;101269.16;;;17.57;55.56
21273;BME280;36726;52.328;10.552;2023-05-07T12:55:59;101260.28;;;17.51;56.38
21273;BME280;36726;52.328;10.552;2023-05-07T12:58:32;101260.19;;;17.65;56.45
21273;BME280;36726;52.328;10.552;2023-05-07T13:01:01;101259.25;;;17.75;55.36
21273;BME280;36726;52.328;10.552;2023-05-07T13:03:29;101259.16;;;17.90;54.80